Time;durP1;ratioP1;P1;durP2;ratioP2;P2;SDS_P1;SDS_P2;PMS_P1;PMS_P2;Temp;Humidity;BMP_temperature;BMP_pressure;BME280_temperature;BME280_humidity;BME280_pressure;Samples;Min_cycle;Max_cycle;Signal;HPM_P1;HPM_P2
2021/08/02 00:00:16;;;;;;;13.13;10.35;;;24.30;98.20;;;;;;5054699;28;20111;-84
2021/08/02 00:03:01;;;;;;;15.88;10.00;;;24.30;98.30;;;;;;5056080;28;20501;-86
2021/08/02 00:05:27;;;;;;;14.45;10.32;;;24.30;98.10;;;;;;5056217;28;20037;-84
2021/08/02 00:07:59;;;;;;;12.90;9.82;;;24.40;98.10;;;;;;5054814;28;20529;-84
2021/08/02 00:10:35;;;;;;;17.75;10.38;;;24.30;98.00;;;;;;5055913;28;20463;-84
2021/08/02 00:13:09;;;;;;;11.23;10.13;;;24.30;98.50;;;;;;5054658;28;20017;-85
2021/08/02 00:15:36;;;;;;;15.35;11.70;;;24.20;98.70;;;;;;5055808;28;20048;-85
2021/08/02 00:18:03;;;;;;;12.40;11.10;;;24.10;99.20;;;;;;5055910;28;20060;-84
2021/08/02 00:20:32;;;;;;;13.90;10.10;;;24.10;99.20;;;;;;5055561;28;20021;-85
2021/08/02 00:23:03;;;;;;;14.00;11.27;;;24.10;98.90;;;;;;5054425;28;20028;-84
2021/08/02 00:25:30;;;;;;;16.05;11.43;;;24.10;99.60;;;;;;5055519;28;20044;-84
2021/08/02 00:27:55;;;;;;;14.20;10.93;;;24.00;99.60;;;;;;5041920;28;20024;-84
2021/08/02 00:30:24;;;;;;;15.95;11.60;;;24.00;99.60;;;;;;5034370;28;20025;-84
2021/08/02 00:32:51;;;;;;;15.48;10.90;;;24.00;99.60;;;;;;5034272;28;20021;-84
2021/08/02 00:35:16;;;;;;;12.95;10.38;;;24.00;99.50;;;;;;5035487;28;20018;-85
2021/08/02 00:37:58;;;;;;;16.88;10.95;;;24.00;99.90;;;;;;5035443;28;20056;-84
2021/08/02 00:40:48;;;;;;;13.85;10.65;;;24.00;99.50;;;;;;5034223;28;20026;-84
2021/08/02 00:43:16;;;;;;;;;;;24.00;99.30;;;;;;5035724;28;20044;-84
2021/08/02 00:45:43;;;;;;;13.57;10.40;;;24.10;99.30;;;;;;5050694;28;19920;-84
2021/08/02 00:48:22;;;;;;;14.98;10.88;;;24.10;99.10;;;;;;5034048;28;20021;-84
2021/08/02 00:50:50;;;;;;;12.57;10.15;;;24.20;99.00;;;;;;5033929;28;20502;-83
2021/08/02 00:53:24;;;;;;;13.20;10.75;;;24.20;98.90;;;;;;5033941;28;20107;-85
2021/08/02 00:55:53;;;;;;;15.27;10.52;;;24.20;99.00;;;;;;5035104;28;20159;-84
2021/08/02 00:58:21;;;;;;;12.70;10.45;;;24.20;99.10;;;;;;5035147;28;20103;-84
2021/08/02 01:00:48;;;;;;;12.40;11.02;;;24.10;99.10;;;;;;5035015;28;20037;-84
2021/08/02 01:03:16;;;;;;;15.93;11.90;;;24.00;99.30;;;;;;5033708;28;20484;-84
2021/08/02 01:05:44;;;;;;;15.80;10.93;;;24.00;99.50;;;;;;5034948;28;20076;-84
2021/08/02 01:08:17;;;;;;;13.70;11.05;;;24.00;99.50;;;;;;5033664;28;20061;-82
2021/08/02 01:10:46;;;;;;;14.10;11.18;;;24.00;99.60;;;;;;5034817;28;20423;-85
2021/08/02 01:13:16;;;;;;;15.43;11.55;;;24.00;99.70;;;;;;5034837;28;20036;-84
2021/08/02 01:15:45;;;;;;;13.65;11.52;;;23.90;99.80;;;;;;5034975;28;20021;-84
2021/08/02 01:18:12;;;;;;;14.90;12.05;;;23.90;99.90;;;;;;5034755;28;20100;-83
2021/08/02 01:20:42;;;;;;;18.95;11.82;;;23.90;99.90;;;;;;5038338;28;20017;-85
2021/08/02 01:23:11;;;;;;;17.52;12.00;;;23.90;99.90;;;;;;5053087;28;20025;-85
2021/08/02 01:25:36;;;;;;;14.77;10.93;;;23.90;99.90;;;;;;5054766;28;20514;-83
2021/08/02 01:28:14;;;;;;;13.07;11.55;;;23.90;99.90;;;;;;5053141;28;20064;-84
2021/08/02 01:30:40;;;;;;;15.85;11.70;;;23.90;99.90;;;;;;5053088;28;20472;-85
2021/08/02 01:33:06;;;;;;;12.93;11.63;;;23.90;99.90;;;;;;5053759;28;20057;-84
2021/08/02 01:35:33;;;;;;;19.52;12.50;;;23.90;99.90;;;;;;5052908;28;20055;-84
2021/08/02 01:37:59;;;;;;;16.38;12.45;;;23.80;99.90;;;;;;5054437;28;20037;-84
2021/08/02 01:40:26;;;;;;;16.67;12.90;;;23.70;99.90;;;;;;5047179;28;20049;-84
2021/08/02 01:42:52;;;;;;;18.80;13.02;;;23.70;99.90;;;;;;5032941;28;20037;-83
2021/08/02 01:45:18;;;;;;;17.67;12.02;;;23.60;99.90;;;;;;5034133;28;20037;-84
2021/08/02 01:47:43;;;;;;;16.50;12.23;;;23.60;99.90;;;;;;5032922;28;20025;-83
2021/08/02 01:50:46;;;;;;;15.65;12.02;;;23.60;99.90;;;;;;5034105;28;20029;-83
2021/08/02 01:53:33;;;;;;;15.88;11.90;;;23.60;99.90;;;;;;5034097;28;20021;-82
2021/08/02 01:56:27;;;;;;;19.85;13.73;;;23.50;99.90;;;;;;5034083;28;20018;-84
2021/08/02 01:59:09;;;;;;;16.17;12.32;;;23.50;99.90;;;;;;5032798;28;20116;-83
2021/08/02 02:01:40;;;;;;;18.63;12.55;;;23.50;99.90;;;;;;5051550;28;20479;-83
2021/08/02 02:04:07;;;;;;;21.63;13.15;;;23.50;99.90;;;;;;5052578;28;20029;-84
2021/08/02 02:06:38;;;;;;;17.83;12.40;;;23.50;99.90;;;;;;5053847;28;20031;-84
2021/08/02 02:09:10;;;;;;;18.73;12.55;;;23.50;99.90;;;;;;5038501;28;20025;-83
2021/08/02 02:11:42;;;;;;;15.98;12.10;;;23.50;99.90;;;;;;5032564;28;20028;-83
2021/08/02 02:14:10;;;;;;;17.83;12.30;;;23.50;99.90;;;;;;5033735;28;20056;-83
2021/08/02 02:16:39;;;;;;;21.90;13.40;;;23.50;99.90;;;;;;5032587;28;20025;-84
2021/08/02 02:19:06;;;;;;;16.17;13.60;;;23.50;99.90;;;;;;5033871;28;20030;-84
2021/08/02 02:21:33;;;;;;;16.85;13.27;;;23.40;99.90;;;;;;5032425;28;20052;-84
2021/08/02 02:23:59;;;;;;;22.23;14.20;;;23.40;99.90;;;;;;5033353;28;20073;-83
2021/08/02 02:26:29;;;;;;;16.70;12.75;;;23.30;99.90;;;;;;5033634;28;20420;-84
2021/08/02 02:29:00;;;;;;;20.75;13.45;;;23.30;99.90;;;;;;5033599;28;20018;-83
2021/08/02 02:31:27;;;;;;;15.32;12.52;;;23.30;99.90;;;;;;5033671;28;20028;-84
2021/08/02 02:33:56;;;;;;;15.82;13.43;;;23.30;99.90;;;;;;5033603;28;20036;-84
2021/08/02 02:36:22;;;;;;;22.63;13.38;;;23.40;99.90;;;;;;5032229;28;20029;-83
2021/08/02 02:38:50;;;;;;;25.20;16.73;;;23.40;99.90;;;;;;5033939;28;20029;-84
2021/08/02 02:41:20;;;;;;;20.77;14.85;;;23.40;99.90;;;;;;5033865;28;20080;-84
2021/08/02 02:43:47;;;;;;;24.83;14.48;;;23.40;99.90;;;;;;5032185;28;20496;-83
2021/08/02 02:46:14;;;;;;;20.85;14.38;;;23.40;99.90;;;;;;5035802;28;20475;-83
2021/08/02 02:48:40;;;;;;;20.83;14.25;;;23.50;99.90;;;;;;5036178;28;20032;-83
2021/08/02 02:51:06;;;;;;;27.52;15.35;;;23.50;99.90;;;;;;5036754;28;20021;-83
2021/08/02 02:53:33;;;;;;;20.23;15.30;;;23.40;99.90;;;;;;5037719;28;20487;-84
2021/08/02 02:56:06;;;;;;;18.83;13.90;;;23.40;99.90;;;;;;5036041;28;20028;-84
2021/08/02 02:58:32;;;;;;;22.95;14.82;;;23.50;99.90;;;;;;5036106;28;20496;-84
2021/08/02 03:00:59;;;;;;;24.02;14.32;;;23.50;99.90;;;;;;5037341;28;20423;-84
2021/08/02 03:03:26;;;;;;;25.35;15.30;;;23.50;99.90;;;;;;5037180;28;20013;-84
2021/08/02 03:05:53;;;;;;;20.63;15.55;;;23.40;99.90;;;;;;5037166;28;20032;-85
2021/08/02 03:08:22;;;;;;;17.88;13.75;;;23.40;99.90;;;;;;5035907;28;20030;-83
2021/08/02 03:10:50;;;;;;;19.00;13.87;;;23.50;99.90;;;;;;5037347;28;20104;-83
2021/08/02 03:13:16;;;;;;;22.25;13.57;;;23.50;99.90;;;;;;5037028;28;20071;-83
2021/08/02 03:15:42;;;;;;;19.63;13.95;;;23.60;99.90;;;;;;5035753;28;20061;-83
2021/08/02 03:18:08;;;;;;;17.80;14.05;;;23.60;99.90;;;;;;5035659;28;20049;-83
2021/08/02 03:20:34;;;;;;;16.23;12.80;;;23.60;99.90;;;;;;5035634;28;20026;-83
2021/08/02 03:23:07;;;;;;;20.83;13.68;;;23.70;99.90;;;;;;5018884;28;20057;-83
2021/08/02 03:25:43;;;;;;;18.35;14.00;;;23.70;99.90;;;;;;5020048;28;20056;-83
2021/08/02 03:28:35;;;;;;;17.10;13.77;;;23.70;99.90;;;;;;5035083;28;20064;-83
2021/08/02 03:31:03;;;;;;;21.45;14.00;;;23.70;99.90;;;;;;5037064;28;20034;-84
2021/08/02 03:33:35;;;;;;;16.98;14.25;;;23.70;99.90;;;;;;5036554;28;20037;-83
2021/08/02 03:36:13;;;;;;;21.48;14.07;;;23.60;99.90;;;;;;5038068;28;20036;-84
2021/08/02 03:38:40;;;;;;;19.48;13.77;;;23.60;99.90;;;;;;5035459;28;20403;-84
2021/08/02 03:41:08;;;;;;;17.55;12.95;;;23.70;99.90;;;;;;5036192;28;20436;-84
2021/08/02 03:43:37;;;;;;;19.30;14.45;;;23.70;99.90;;;;;;5035427;28;20049;-83
2021/08/02 03:46:05;;;;;;;17.27;13.57;;;23.70;99.90;;;;;;5018537;28;20541;-84
2021/08/02 03:48:32;;;;;;;17.77;14.30;;;23.80;99.90;;;;;;5035159;28;20048;-84
2021/08/02 03:50:58;;;;;;;22.23;15.93;;;23.70;99.90;;;;;;5072902;28;20519;-84
2021/08/02 17:28:13;;;;;;;19.48;15.60;;;25.00;98.50;;;;;;5116248;27;20376;-75
2021/08/02 17:30:40;;;;;;;17.88;12.27;;;24.80;99.00;;;;;;5131667;28;20088;-77
2021/08/02 17:33:06;;;;;;;9.70;7.22;;;24.60;99.70;;;;;;5112501;28;20378;-81
2021/08/02 17:35:31;;;;;;;8.35;6.35;;;24.60;99.90;;;;;;5111306;28;20015;-83
2021/08/02 17:37:57;;;;;;;185.82;150.07;;;24.60;99.90;;;;;;5111335;28;20027;-82
2021/08/02 17:40:23;;;;;;;49.47;43.47;;;24.70;99.90;;;;;;5111521;28;20034;-80
2021/08/02 17:42:48;;;;;;;22.58;15.38;;;24.70;99.90;;;;;;5111238;28;20107;-81
2021/08/02 17:45:15;;;;;;;10.02;7.22;;;24.80;99.90;;;;;;5111288;28;20034;-82
2021/08/02 17:47:41;;;;;;;7.63;6.40;;;24.80;99.90;;;;;;5111101;28;20016;-80
2021/08/02 17:50:07;;;;;;;9.45;6.60;;;24.90;99.50;;;;;;5111192;28;20117;-81
2021/08/02 17:52:33;;;;;;;11.23;6.63;;;24.90;99.90;;;;;;5111246;28;20037;-79
2021/08/02 17:54:59;;;;;;;36.88;31.75;;;24.90;99.80;;;;;;5111256;28;20447;-81
2021/08/02 17:57:24;;;;;;;13.52;11.63;;;25.00;99.50;;;;;;5111145;28;20028;-81
2021/08/02 17:59:50;;;;;;;45.47;35.60;;;25.00;99.40;;;;;;5109805;28;20063;-81
2021/08/02 18:02:16;;;;;;;13.90;10.23;;;25.00;99.10;;;;;;5110920;28;20107;-82
2021/08/02 18:04:41;;;;;;;10.95;9.43;;;25.10;98.80;;;;;;5109492;28;20367;-86
2021/08/02 18:07:07;;;;;;;11.38;10.02;;;25.10;98.70;;;;;;5110501;28;20027;-81
2021/08/02 18:09:33;;;;;;;7.57;5.35;;;25.20;98.70;;;;;;5110660;28;20020;-79
2021/08/02 18:11:59;;;;;;;6.10;5.43;;;25.20;98.20;;;;;;5110640;28;20699;-79
2021/08/02 18:14:26;;;;;;;15.00;13.05;;;25.20;98.00;;;;;;5110512;28;20107;-79
2021/08/02 18:16:53;;;;;;;16.80;15.02;;;25.20;97.70;;;;;;5110681;28;20526;-82
2021/08/02 18:19:19;;;;;;;9.10;7.55;;;25.30;97.60;;;;;;5110661;28;20051;-80
2021/08/02 18:21:46;;;;;;;8.55;5.63;;;25.20;97.70;;;;;;5110613;28;20024;-84
2021/08/02 18:24:11;;;;;;;7.30;5.03;;;25.20;97.90;;;;;;5110332;28;20097;-82
2021/08/02 18:26:37;;;;;;;6.20;5.30;;;25.20;97.70;;;;;;5109870;28;20485;-78
2021/08/02 18:29:04;;;;;;;8.88;5.85;;;25.30;97.30;;;;;;5110724;28;20022;-77
2021/08/02 18:31:30;;;;;;;6.88;5.65;;;25.20;97.30;;;;;;5112380;28;20016;-78
2021/08/02 18:33:56;;;;;;;9.68;5.45;;;25.20;97.30;;;;;;5107849;28;20016;-77
2021/08/02 18:36:22;;;;;;;10.85;6.07;;;25.20;97.30;;;;;;5109883;28;20032;-75
2021/08/02 18:38:48;;;;;;;7.88;6.05;;;25.20;97.40;;;;;;5100824;28;20085;-75
2021/08/02 18:41:14;;;;;;;7.15;5.70;;;25.20;97.20;;;;;;5096067;28;20028;-76
2021/08/02 18:43:39;;;;;;;9.18;5.88;;;25.20;97.30;;;;;;5095836;28;20106;-75
2021/08/02 18:46:05;;;;;;;9.77;6.38;;;25.20;97.40;;;;;;5096143;28;20102;-75
2021/08/02 18:48:31;;;;;;;10.55;5.85;;;25.10;97.50;;;;;;5096197;28;20408;-74
2021/08/02 18:50:57;;;;;;;7.82;6.03;;;25.00;97.60;;;;;;5096228;28;20028;-74
2021/08/02 18:53:22;;;;;;;7.95;6.57;;;25.00;97.70;;;;;;5095962;28;20020;-74
2021/08/02 18:55:48;;;;;;;7.63;6.55;;;25.00;97.90;;;;;;5095809;28;20489;-74
2021/08/02 18:58:14;;;;;;;8.05;6.65;;;24.90;98.00;;;;;;5096028;28;20091;-74
2021/08/02 19:00:39;;;;;;;7.32;6.57;;;24.90;98.10;;;;;;5095984;28;20370;-74
2021/08/02 19:03:07;;;;;;;13.40;6.90;;;24.80;98.20;;;;;;5095715;28;20099;-74
2021/08/02 19:05:32;;;;;;;7.72;6.88;;;24.90;98.30;;;;;;5095453;28;20466;-74
2021/08/02 19:08:02;;;;;;;10.63;7.18;;;24.80;98.30;;;;;;5095775;28;20039;-74
2021/08/02 19:10:28;;;;;;;13.50;7.55;;;24.90;98.30;;;;;;5095257;28;20035;-74
2021/08/02 19:13:00;;;;;;;10.02;7.20;;;24.90;98.40;;;;;;5095072;28;20030;-74
2021/08/02 19:15:28;;;;;;;9.57;7.57;;;24.80;98.40;;;;;;5095605;28;20031;-74
2021/08/02 19:18:04;;;;;;;11.02;8.20;;;24.80;98.60;;;;;;5095789;28;20059;-75
2021/08/02 19:20:31;;;;;;;10.02;7.57;;;24.80;98.50;;;;;;5084380;28;20033;-74
2021/08/02 19:22:58;;;;;;;9.77;8.00;;;24.70;98.70;;;;;;5077658;28;20017;-75
2021/08/02 19:25:26;;;;;;;12.05;8.20;;;24.70;98.80;;;;;;5091399;28;20031;-75
2021/08/02 19:27:52;;;;;;;11.10;8.90;;;24.70;98.80;;;;;;5093184;28;20056;-75
2021/08/02 19:30:19;;;;;;;10.35;8.43;;;24.60;98.90;;;;;;5076290;28;20054;-82
2021/08/02 19:32:45;;;;;;;13.32;8.77;;;24.60;99.00;;;;;;5085390;28;20024;-76
2021/08/02 19:35:13;;;;;;;10.60;8.68;;;24.50;99.20;;;;;;5092811;28;20024;-74
2021/08/02 19:37:40;;;;;;;11.10;8.73;;;24.60;99.30;;;;;;5089504;28;20092;-74
2021/08/02 19:40:08;;;;;;;11.00;8.68;;;24.50;99.40;;;;;;5073950;28;20034;-74
2021/08/02 19:42:43;;;;;;;11.48;8.65;;;24.50;99.50;;;;;;5073925;28;20099;-74
2021/08/02 19:45:10;;;;;;;14.23;9.77;;;24.50;99.50;;;;;;5085189;28;20023;-75
2021/08/02 19:48:14;;;;;;;12.77;8.82;;;24.50;99.50;;;;;;5081978;28;20064;-74
2021/08/02 19:50:42;;;;;;;11.43;8.25;;;24.50;99.40;;;;;;5040022;28;20033;-74
2021/08/02 19:53:16;;;;;;;11.88;8.70;;;24.50;99.70;;;;;;5094376;28;20019;-74
2021/08/02 19:55:43;;;;;;;47.72;36.22;;;24.50;99.90;;;;;;5094708;28;20052;-77
2021/08/02 19:58:14;;;;;;;21.35;18.88;;;24.50;99.80;;;;;;5094486;28;20036;-78
2021/08/02 20:00:43;;;;;;;11.77;10.32;;;24.50;99.80;;;;;;5093741;28;20024;-79
2021/08/02 20:03:09;;;;;;;35.47;27.10;;;24.50;99.80;;;;;;5095238;28;20020;-81
2021/08/02 20:05:39;;;;;;;35.65;27.55;;;24.50;99.80;;;;;;5094669;28;20111;-79
2021/08/02 20:08:07;;;;;;;20.80;13.48;;;24.50;99.90;;;;;;5094808;28;20486;-76
2021/08/02 20:10:38;;;;;;;11.68;9.27;;;24.50;99.70;;;;;;5089835;28;20486;-76
2021/08/02 20:13:05;;;;;;;14.18;9.15;;;24.50;99.60;;;;;;5082815;28;20020;-76
2021/08/02 20:15:31;;;;;;;12.25;8.60;;;24.50;99.70;;;;;;5074269;28;20062;-76
2021/08/02 20:17:57;;;;;;;13.27;9.25;;;24.40;99.80;;;;;;5085954;28;20020;-76
2021/08/02 20:20:23;;;;;;;13.27;9.10;;;24.40;99.80;;;;;;5094251;28;20036;-76
2021/08/02 20:22:52;;;;;;;10.32;8.75;;;24.40;99.90;;;;;;5094333;28;20072;-76
2021/08/02 20:25:24;;;;;;;10.40;8.40;;;24.40;99.90;;;;;;5088830;28;20452;-76
2021/08/02 20:27:57;;;;;;;10.75;8.73;;;24.30;99.90;;;;;;5073388;28;20056;-76
2021/08/02 20:30:25;;;;;;;14.93;9.35;;;24.30;99.90;;;;;;5076288;28;20017;-76
2021/08/02 20:32:53;;;;;;;12.15;8.40;;;24.30;99.90;;;;;;5080964;28;20020;-76
2021/08/02 20:35:21;;;;;;;11.15;8.70;;;24.30;99.90;;;;;;5095008;28;20026;-76
2021/08/02 20:37:50;;;;;;;11.20;8.00;;;24.30;99.90;;;;;;5094309;28;20016;-76
2021/08/02 20:40:16;;;;;;;11.55;8.90;;;24.30;99.90;;;;;;5094400;28;20023;-76
2021/08/02 20:42:44;;;;;;;12.00;8.30;;;24.20;99.90;;;;;;5073969;28;20024;-76
2021/08/02 20:45:12;;;;;;;13.15;8.65;;;24.30;99.90;;;;;;5074348;28;20028;-76
2021/08/02 20:47:40;;;;;;;11.63;8.90;;;24.20;99.90;;;;;;5073958;28;20035;-76
2021/08/02 20:50:07;;;;;;;13.38;9.43;;;24.20;99.90;;;;;;5074445;28;20078;-76
2021/08/02 20:52:34;;;;;;;12.63;8.57;;;24.20;99.90;;;;;;5074239;28;20048;-76
2021/08/02 20:55:00;;;;;;;12.90;9.05;;;24.10;99.90;;;;;;5080288;28;20035;-76
2021/08/02 20:57:31;;;;;;;12.80;8.45;;;24.10;99.90;;;;;;5094339;28;20032;-76
2021/08/02 21:00:05;;;;;;;11.25;8.30;;;24.10;99.90;;;;;;5085787;28;20024;-76
2021/08/02 21:02:52;;;;;;;10.45;9.23;;;24.00;99.90;;;;;;5074839;28;20025;-76
2021/08/02 21:05:21;;;;;;;12.43;8.95;;;24.10;99.90;;;;;;5073760;28;20031;-76
2021/08/02 21:07:55;;;;;;;11.87;9.70;;;24.00;99.90;;;;;;5078518;28;20020;-76
2021/08/02 21:10:24;;;;;;;9.30;8.13;;;24.00;99.90;;;;;;5077799;28;20035;-76
2021/08/02 21:13:08;;;;;;;12.95;9.25;;;24.00;99.90;;;;;;5074010;28;20104;-76
2021/08/02 21:15:59;;;;;;;11.48;8.63;;;24.00;99.90;;;;;;5087154;28;20462;-76
2021/08/02 21:18:52;;;;;;;13.27;8.35;;;24.00;99.90;;;;;;5074020;28;20043;-76
2021/08/02 21:21:18;;;;;;;11.27;8.68;;;24.00;99.90;;;;;;5073675;28;20025;-76
2021/08/02 21:23:51;;;;;;;10.13;8.70;;;23.90;99.90;;;;;;5073641;28;20396;-76
2021/08/02 21:26:21;;;;;;;12.73;8.05;;;24.00;99.90;;;;;;5073443;28;20052;-76
2021/08/02 21:28:46;;;;;;;;;;;23.90;99.90;;;;;;5074329;28;20027;-76
2021/08/02 21:31:13;;;;;;;12.40;8.63;;;23.90;99.90;;;;;;5074226;28;20318;-76
2021/08/02 21:33:40;;;;;;;11.43;8.85;;;23.90;99.90;;;;;;5073782;28;20448;-76
2021/08/02 21:36:08;;;;;;;13.65;8.73;;;23.90;99.90;;;;;;5074077;28;20082;-76
2021/08/02 21:38:35;;;;;;;9.73;8.13;;;23.90;99.90;;;;;;5073638;28;20025;-76
2021/08/02 21:41:02;;;;;;;9.60;7.30;;;23.80;99.90;;;;;;5073823;28;20459;-76
2021/08/02 21:43:28;;;;;;;13.70;7.78;;;23.90;99.80;;;;;;5073925;28;20025;-76
2021/08/02 21:45:54;;;;;;;8.45;6.47;;;23.90;99.30;;;;;;5073738;28;20489;-76
2021/08/02 21:48:20;;;;;;;8.82;6.32;;;23.90;98.60;;;;;;5091324;28;20069;-76
2021/08/02 21:50:46;;;;;;;7.85;5.75;;;24.00;97.70;;;;;;5081253;28;20099;-78
2021/08/02 21:53:12;;;;;;;8.55;6.15;;;24.00;97.50;;;;;;5073717;28;20100;-76
2021/08/02 21:55:42;;;;;;;8.00;5.90;;;24.00;97.20;;;;;;5073691;28;20444;-76
2021/08/02 21:58:09;;;;;;;7.05;5.70;;;24.00;97.00;;;;;;5073955;28;20056;-76
2021/08/02 22:00:35;;;;;;;6.95;5.97;;;24.00;97.00;;;;;;5073505;28;20501;-76
2021/08/02 22:03:01;;;;;;;7.57;5.68;;;24.00;96.90;;;;;;5088959;28;20111;-77
2021/08/02 22:05:27;;;;;;;8.60;5.82;;;24.00;96.80;;;;;;5073581;28;20154;-76
2021/08/02 22:07:52;;;;;;;8.85;6.18;;;24.00;96.50;;;;;;5073140;28;20032;-76
2021/08/02 22:10:18;;;;;;;7.63;6.03;;;24.00;96.30;;;;;;5073518;28;20078;-76
2021/08/02 22:12:44;;;;;;;7.75;6.13;;;24.00;96.20;;;;;;5073744;28;20471;-76
2021/08/02 22:15:12;;;;;;;7.65;6.47;;;24.00;96.30;;;;;;5080713;28;20027;-77
2021/08/02 22:17:38;;;;;;;8.10;6.18;;;23.90;96.30;;;;;;5097130;28;20020;-76
2021/08/02 22:20:04;;;;;;;13.43;7.07;;;23.90;96.30;;;;;;5097352;28;20031;-76
2021/08/02 22:22:30;;;;;;;9.52;6.55;;;23.90;96.20;;;;;;5097016;28;20024;-77
2021/08/02 22:24:56;;;;;;;6.70;6.00;;;23.90;96.10;;;;;;5097436;28;20471;-77
2021/08/02 22:27:22;;;;;;;6.63;5.80;;;23.90;96.20;;;;;;5096902;28;20048;-76
2021/08/02 22:29:47;;;;;;;7.38;5.72;;;23.80;96.20;;;;;;5096944;28;20020;-77
2021/08/02 22:32:13;;;;;;;8.48;5.50;;;23.80;96.20;;;;;;5097727;28;20030;-75
2021/08/02 22:34:40;;;;;;;8.30;5.90;;;23.80;96.20;;;;;;5096871;28;20024;-75
2021/08/02 22:37:12;;;;;;;6.88;5.43;;;23.80;95.90;;;;;;5088389;28;20024;-76
2021/08/02 22:39:38;;;;;;;7.88;5.63;;;23.70;96.00;;;;;;5077234;28;20029;-76
2021/08/02 22:42:07;;;;;;;6.20;5.53;;;23.60;96.00;;;;;;5097346;28;20398;-76
2021/08/02 22:44:33;;;;;;;6.05;5.45;;;23.60;95.90;;;;;;5096766;28;20021;-76
2021/08/02 22:47:03;;;;;;;6.15;5.10;;;23.50;95.90;;;;;;5096606;28;20080;-75
2021/08/02 22:49:29;;;;;;;5.97;5.38;;;23.50;95.90;;;;;;5095566;28;20120;-76
2021/08/02 22:51:56;;;;;;;6.05;5.20;;;23.50;95.90;;;;;;5094720;28;20094;-77
2021/08/02 22:54:23;;;;;;;5.95;5.05;;;23.50;95.80;;;;;;5085158;28;20025;-75
2021/08/02 22:56:49;;;;;;;5.90;5.25;;;23.50;95.70;;;;;;5096217;28;20381;-75
2021/08/02 22:59:17;;;;;;;6.50;5.32;;;23.40;95.90;;;;;;5083138;28;20035;-75
2021/08/02 23:01:46;;;;;;;7.95;5.07;;;23.40;95.80;;;;;;5076048;28;20531;-75
2021/08/02 23:04:17;;;;;;;7.93;5.30;;;23.40;95.80;;;;;;5075939;28;20021;-75
2021/08/02 23:06:46;;;;;;;5.13;4.63;;;23.40;95.90;;;;;;5076459;28;20063;-75
2021/08/02 23:09:15;;;;;;;5.22;4.72;;;23.40;95.90;;;;;;5075793;28;20479;-75
2021/08/02 23:11:40;;;;;;;6.57;4.80;;;23.40;95.80;;;;;;5086373;28;20531;-75
2021/08/02 23:14:08;;;;;;;7.95;4.72;;;23.40;95.70;;;;;;5096789;28;20036;-76
2021/08/02 23:16:44;;;;;;;5.30;4.80;;;23.40;95.50;;;;;;5096274;28;20035;-75
2021/08/02 23:19:10;;;;;;;7.95;5.35;;;23.40;95.50;;;;;;5096051;28;20056;-75
2021/08/02 23:21:37;;;;;;;7.38;4.82;;;23.40;95.20;;;;;;5096370;28;20518;-75
2021/08/02 23:24:04;;;;;;;9.52;5.53;;;23.40;95.30;;;;;;5095776;28;20409;-82
2021/08/02 23:26:32;;;;;;;6.10;5.20;;;23.30;95.10;;;;;;5095581;28;20040;-81
2021/08/02 23:29:04;;;;;;;5.05;4.45;;;23.40;95.10;;;;;;5096154;28;20103;-82
2021/08/02 23:31:32;;;;;;;6.25;3.90;;;23.30;95.30;;;;;;5095795;28;20069;-84
2021/08/02 23:33:59;;;;;;;5.00;4.50;;;23.20;95.40;;;;;;5095666;28;20047;-82
2021/08/02 23:36:30;;;;;;;5.68;4.85;;;23.20;95.40;;;;;;5095498;28;20032;-82
2021/08/02 23:39:01;;;;;;;6.30;4.63;;;23.30;95.30;;;;;;5095666;28;20077;-81
2021/08/02 23:41:30;;;;;;;5.95;4.75;;;23.30;95.20;;;;;;5095870;28;20020;-82
2021/08/02 23:43:56;;;;;;;5.55;4.75;;;23.30;95.10;;;;;;5095557;28;20098;-81
2021/08/02 23:46:22;;;;;;;7.68;4.70;;;23.30;95.20;;;;;;5095682;28;20031;-82
2021/08/02 23:48:54;;;;;;;5.97;4.95;;;23.30;95.20;;;;;;5095394;28;20547;-82
2021/08/02 23:51:20;;;;;;;5.28;4.78;;;23.30;95.30;;;;;;5095713;28;20024;-83
2021/08/02 23:53:46;;;;;;;5.20;4.70;;;23.30;95.10;;;;;;5095583;28;20099;-83
2021/08/02 23:56:14;;;;;;;6.43;4.40;;;23.30;95.10;;;;;;5095385;28;20100;-80
2021/08/02 23:58:41;;;;;;;7.82;4.30;;;23.30;95.00;;;;;;5095233;28;20023;-82
